sensor_id;sensor_type;location;lat;lon;timestamp;pressure;altitude;pressure_sealevel;temperature;humidity
56052;BME280;41919;42.648;23.384;2023-05-19T00:00:17;94788.28;;;12.56;100.00
56052;BME280;41919;42.648;23.384;2023-05-19T00:02:43;94785.84;;;12.54;100.00
56052;BME280;41919;42.648;23.384;2023-05-19T00:05:10;94719.50;;;12.15;100.00
56052;BME280;41919;42.648;23.384;2023-05-19T00:07:37;94792.66;;;12.62;100.00
56052;BME280;41919;42.648;23.384;2023-05-19T00:10:04;94764.69;;;12.49;100.00
56052;BME280;41919;42.648;23.384;2023-05-19T00:12:30;94681.97;;;11.90;100.00
56052;BME280;41919;42.648;23.384;2023-05-19T00:14:56;94775.38;;;12.48;100.00
56052;BME280;41919;42.648;23.384;2023-05-19T00:17:21;94779.00;;;12.53;100.00
56052;BME280;41919;42.648;23.384;2023-05-19T00:19:47;94741.94;;;12.43;100.00
56052;BME280;41919;42.648;23.384;2023-05-19T00:22:13;94754.81;;;12.51;100.00
56052;BME280;41919;42.648;23.384;2023-05-19T00:24:39;94766.84;;;12.59;100.00
56052;BME280;41919;42.648;23.384;2023-05-19T00:27:04;94713.44;;;12.22;100.00
56052;BME280;41919;42.648;23.384;2023-05-19T00:29:30;94762.41;;;12.60;100.00
56052;BME280;41919;42.648;23.384;2023-05-19T00:31:55;94761.41;;;12.61;100.00
56052;BME280;41919;42.648;23.384;2023-05-19T00:34:21;94772.16;;;12.52;100.00
56052;BME280;41919;42.648;23.384;2023-05-19T00:36:46;94698.19;;;12.05;100.00
56052;BME280;41919;42.648;23.384;2023-05-19T00:39:11;94768.97;;;12.44;100.00
56052;BME280;41919;42.648;23.384;2023-05-19T00:41:37;94685.97;;;11.86;100.00
56052;BME280;41919;42.648;23.384;2023-05-19T00:44:03;94751.72;;;12.23;100.00
56052;BME280;41919;42.648;23.384;2023-05-19T00:46:28;94746.72;;;12.14;100.00
56052;BME280;41919;42.648;23.384;2023-05-19T00:48:54;94693.84;;;11.86;100.00
56052;BME280;41919;42.648;23.384;2023-05-19T00:51:21;94769.59;;;12.39;100.00
56052;BME280;41919;42.648;23.384;2023-05-19T00:53:48;94711.06;;;12.13;100.00
56052;BME280;41919;42.648;23.384;2023-05-19T00:56:16;94759.66;;;12.48;100.00
56052;BME280;41919;42.648;23.384;2023-05-19T00:58:43;94593.13;;;11.36;100.00
56052;BME280;41919;42.648;23.384;2023-05-19T01:01:08;94752.91;;;12.33;100.00
56052;BME280;41919;42.648;23.384;2023-05-19T01:03:36;94701.84;;;12.04;100.00
56052;BME280;41919;42.648;23.384;2023-05-19T01:06:05;94677.31;;;11.92;100.00
56052;BME280;41919;42.648;23.384;2023-05-19T01:08:32;94739.16;;;12.38;100.00
56052;BME280;41919;42.648;23.384;2023-05-19T01:10:58;94727.88;;;12.31;100.00
56052;BME280;41919;42.648;23.384;2023-05-19T01:13:24;94762.06;;;12.49;100.00
56052;BME280;41919;42.648;23.384;2023-05-19T01:15:56;94760.44;;;12.55;100.00
56052;BME280;41919;42.648;23.384;2023-05-19T01:18:35;94739.94;;;12.45;100.00
56052;BME280;41919;42.648;23.384;2023-05-19T01:24:07;94767.59;;;12.34;100.00
56052;BME280;41919;42.648;23.384;2023-05-19T01:29:16;94770.25;;;12.28;100.00
56052;BME280;41919;42.648;23.384;2023-05-19T01:31:48;94757.59;;;12.18;100.00
56052;BME280;41919;42.648;23.384;2023-05-19T01:34:16;94760.22;;;12.11;100.00
56052;BME280;41919;42.648;23.384;2023-05-19T01:36:43;94759.03;;;12.14;100.00
56052;BME280;41919;42.648;23.384;2023-05-19T01:39:09;94751.38;;;12.06;100.00
56052;BME280;41919;42.648;23.384;2023-05-19T01:41:37;94701.38;;;11.62;100.00
56052;BME280;41919;42.648;23.384;2023-05-19T01:44:04;94704.78;;;11.63;100.00
56052;BME280;41919;42.648;23.384;2023-05-19T01:46:30;94747.19;;;11.85;100.00
56052;BME280;41919;42.648;23.384;2023-05-19T01:48:56;94739.94;;;11.87;100.00
56052;BME280;41919;42.648;23.384;2023-05-19T01:51:22;94750.22;;;11.88;100.00
56052;BME280;41919;42.648;23.384;2023-05-19T01:53:48;94762.75;;;11.73;100.00
56052;BME280;41919;42.648;23.384;2023-05-19T01:56:17;94779.44;;;11.78;100.00
56052;BME280;41919;42.648;23.384;2023-05-19T01:58:47;94771.00;;;11.76;100.00
56052;BME280;41919;42.648;23.384;2023-05-19T02:06:43;94711.28;;;11.47;100.00
56052;BME280;41919;42.648;23.384;2023-05-19T02:09:25;94768.75;;;11.87;100.00
56052;BME280;41919;42.648;23.384;2023-05-19T02:14:38;94774.00;;;11.73;100.00
56052;BME280;41919;42.648;23.384;2023-05-19T02:17:04;94714.91;;;11.32;100.00
56052;BME280;41919;42.648;23.384;2023-05-19T02:19:33;94725.00;;;11.35;100.00
56052;BME280;41919;42.648;23.384;2023-05-19T02:21:59;94772.81;;;11.69;100.00
56052;BME280;41919;42.648;23.384;2023-05-19T02:24:25;94773.44;;;11.65;100.00
56052;BME280;41919;42.648;23.384;2023-05-19T02:26:52;94758.00;;;11.43;100.00
56052;BME280;41919;42.648;23.384;2023-05-19T02:29:18;94649.41;;;10.74;100.00
56052;BME280;41919;42.648;23.384;2023-05-19T02:31:44;94781.13;;;11.53;100.00
56052;BME280;41919;42.648;23.384;2023-05-19T02:34:09;94779.09;;;11.48;100.00
56052;BME280;41919;42.648;23.384;2023-05-19T02:36:35;94769.66;;;11.34;100.00
56052;BME280;41919;42.648;23.384;2023-05-19T02:39:02;94771.28;;;11.28;100.00
56052;BME280;41919;42.648;23.384;2023-05-19T02:41:27;94736.28;;;11.09;100.00
56052;BME280;41919;42.648;23.384;2023-05-19T02:43:53;94714.56;;;10.82;100.00
56052;BME280;41919;42.648;23.384;2023-05-19T02:46:19;94764.84;;;11.24;100.00
56052;BME280;41919;42.648;23.384;2023-05-19T02:48:44;94686.63;;;10.76;100.00
56052;BME280;41919;42.648;23.384;2023-05-19T02:51:10;94788.56;;;11.43;100.00
56052;BME280;41919;42.648;23.384;2023-05-19T02:53:35;94767.06;;;11.34;100.00
56052;BME280;41919;42.648;23.384;2023-05-19T02:56:00;94714.56;;;10.95;100.00
56052;BME280;41919;42.648;23.384;2023-05-19T02:58:26;94730.63;;;11.06;100.00
56052;BME280;41919;42.648;23.384;2023-05-19T03:00:51;94772.88;;;11.29;100.00
56052;BME280;41919;42.648;23.384;2023-05-19T03:03:17;94773.28;;;11.33;100.00
56052;BME280;41919;42.648;23.384;2023-05-19T03:05:42;94729.66;;;11.07;100.00
56052;BME280;41919;42.648;23.384;2023-05-19T03:08:08;94736.66;;;11.06;100.00
56052;BME280;41919;42.648;23.384;2023-05-19T03:10:34;94794.22;;;11.40;100.00
56052;BME280;41919;42.648;23.384;2023-05-19T03:12:59;94792.59;;;11.45;100.00
56052;BME280;41919;42.648;23.384;2023-05-19T03:15:25;94771.88;;;11.30;100.00
56052;BME280;41919;42.648;23.384;2023-05-19T03:17:50;94740.28;;;11.12;100.00
56052;BME280;41919;42.648;23.384;2023-05-19T03:20:16;94778.53;;;11.40;100.00
56052;BME280;41919;42.648;23.384;2023-05-19T03:22:42;94804.25;;;11.56;100.00
56052;BME280;41919;42.648;23.384;2023-05-19T03:25:08;94777.69;;;11.46;100.00
56052;BME280;41919;42.648;23.384;2023-05-19T03:27:33;94798.00;;;11.64;100.00
56052;BME280;41919;42.648;23.384;2023-05-19T03:29:59;94779.91;;;11.62;100.00
56052;BME280;41919;42.648;23.384;2023-05-19T03:32:24;94795.78;;;11.74;100.00
56052;BME280;41919;42.648;23.384;2023-05-19T03:34:50;94786.91;;;11.82;100.00
56052;BME280;41919;42.648;23.384;2023-05-19T03:37:15;94771.00;;;11.76;100.00
56052;BME280;41919;42.648;23.384;2023-05-19T03:39:41;94753.88;;;11.81;100.00
56052;BME280;41919;42.648;23.384;2023-05-19T03:42:06;94777.38;;;12.14;100.00
56052;BME280;41919;42.648;23.384;2023-05-19T03:44:31;94773.88;;;12.27;100.00
56052;BME280;41919;42.648;23.384;2023-05-19T03:46:57;94784.88;;;12.49;100.00
56052;BME280;41919;42.648;23.384;2023-05-19T03:49:22;94800.28;;;12.70;100.00
56052;BME280;41919;42.648;23.384;2023-05-19T03:51:48;94797.97;;;12.87;100.00
56052;BME280;41919;42.648;23.384;2023-05-19T03:54:13;94736.19;;;12.60;100.00
56052;BME280;41919;42.648;23.384;2023-05-19T03:56:39;94787.28;;;13.14;100.00
56052;BME280;41919;42.648;23.384;2023-05-19T03:59:06;94793.81;;;13.37;100.00
56052;BME280;41919;42.648;23.384;2023-05-19T04:01:32;94800.41;;;13.64;100.00
56052;BME280;41919;42.648;23.384;2023-05-19T04:03:57;94798.78;;;13.63;100.00
56052;BME280;41919;42.648;23.384;2023-05-19T04:06:23;94791.16;;;13.80;100.00
56052;BME280;41919;42.648;23.384;2023-05-19T04:08:48;94788.41;;;13.75;100.00
56052;BME280;41919;42.648;23.384;2023-05-19T04:11:14;94801.88;;;13.79;100.00
56052;BME280;41919;42.648;23.384;2023-05-19T04:13:39;94812.13;;;14.05;100.00
56052;BME280;41919;42.648;23.384;2023-05-19T04:16:05;94803.44;;;14.05;100.00
56052;BME280;41919;42.648;23.384;2023-05-19T04:18:31;94764.97;;;13.92;100.00
56052;BME280;41919;42.648;23.384;2023-05-19T04:20:56;94817.66;;;14.52;100.00
56052;BME280;41919;42.648;23.384;2023-05-19T04:23:21;94813.72;;;14.62;100.00
56052;BME280;41919;42.648;23.384;2023-05-19T04:25:47;94789.69;;;14.58;100.00
56052;BME280;41919;42.648;23.384;2023-05-19T04:28:13;94808.22;;;14.94;100.00
56052;BME280;41919;42.648;23.384;2023-05-19T04:30:39;94819.63;;;15.18;100.00
56052;BME280;41919;42.648;23.384;2023-05-19T04:33:07;94828.50;;;15.47;100.00
56052;BME280;41919;42.648;23.384;2023-05-19T04:35:33;94806.06;;;15.68;100.00
56052;BME280;41919;42.648;23.384;2023-05-19T04:37:58;94835.41;;;16.19;99.61
56052;BME280;41919;42.648;23.384;2023-05-19T04:40:26;94828.41;;;16.65;96.93
56052;BME280;41919;42.648;23.384;2023-05-19T04:42:51;94815.09;;;17.00;92.31
56052;BME280;41919;42.648;23.384;2023-05-19T04:45:18;94819.38;;;17.35;90.65
56052;BME280;41919;42.648;23.384;2023-05-19T04:47:43;94811.22;;;17.54;90.79
56052;BME280;41919;42.648;23.384;2023-05-19T04:50:10;94827.34;;;17.86;85.30
56052;BME280;41919;42.648;23.384;2023-05-19T04:52:36;94829.50;;;17.89;84.51
56052;BME280;41919;42.648;23.384;2023-05-19T04:55:02;94821.69;;;17.82;84.95
56052;BME280;41919;42.648;23.384;2023-05-19T04:57:28;94779.75;;;17.52;85.05
56052;BME280;41919;42.648;23.384;2023-05-19T04:59:53;94838.06;;;17.96;84.92
56052;BME280;41919;42.648;23.384;2023-05-19T05:02:24;94836.09;;;18.26;84.98
56052;BME280;41919;42.648;23.384;2023-05-19T05:04:52;94824.59;;;18.59;82.52
56052;BME280;41919;42.648;23.384;2023-05-19T05:07:19;94832.44;;;18.98;78.86
56052;BME280;41919;42.648;23.384;2023-05-19T05:09:46;94837.50;;;19.27;76.82
56052;BME280;41919;42.648;23.384;2023-05-19T05:12:13;94829.53;;;19.27;77.01
56052;BME280;41919;42.648;23.384;2023-05-19T05:14:39;94832.09;;;19.76;74.97
56052;BME280;41919;42.648;23.384;2023-05-19T05:17:05;94786.84;;;19.88;72.43
56052;BME280;41919;42.648;23.384;2023-05-19T05:19:32;94812.84;;;20.39;71.27
56052;BME280;41919;42.648;23.384;2023-05-19T05:21:58;94828.56;;;20.55;70.61
56052;BME280;41919;42.648;23.384;2023-05-19T05:24:23;94795.22;;;20.75;68.71
56052;BME280;41919;42.648;23.384;2023-05-19T05:26:50;94783.28;;;20.83;67.69
56052;BME280;41919;42.648;23.384;2023-05-19T05:29:16;94843.63;;;20.92;67.81
56052;BME280;41919;42.648;23.384;2023-05-19T05:31:41;94835.97;;;21.22;67.15
56052;BME280;41919;42.648;23.384;2023-05-19T05:34:07;94833.09;;;21.44;63.40
56052;BME280;41919;42.648;23.384;2023-05-19T05:36:32;94844.81;;;21.73;61.08
56052;BME280;41919;42.648;23.384;2023-05-19T05:38:59;94825.66;;;21.87;60.38
56052;BME280;41919;42.648;23.384;2023-05-19T05:41:27;94835.47;;;21.97;60.20
56052;BME280;41919;42.648;23.384;2023-05-19T05:43:59;94834.13;;;22.09;58.61
56052;BME280;41919;42.648;23.384;2023-05-19T05:46:24;94786.75;;;22.01;57.63
56052;BME280;41919;42.648;23.384;2023-05-19T05:48:50;94823.63;;;22.59;56.74
56052;BME280;41919;42.648;23.384;2023-05-19T05:51:16;94826.44;;;22.83;55.56
56052;BME280;41919;42.648;23.384;2023-05-19T05:53:43;94769.16;;;22.86;54.04
56052;BME280;41919;42.648;23.384;2023-05-19T05:56:14;94836.19;;;23.53;50.60
56052;BME280;41919;42.648;23.384;2023-05-19T05:58:40;94840.66;;;23.63;49.82
56052;BME280;41919;42.648;23.384;2023-05-19T06:01:06;94845.91;;;23.78;48.83
56052;BME280;41919;42.648;23.384;2023-05-19T06:03:37;94841.59;;;23.77;47.42
56052;BME280;41919;42.648;23.384;2023-05-19T06:06:03;94803.88;;;23.55;45.86
56052;BME280;41919;42.648;23.384;2023-05-19T06:08:29;94848.69;;;23.58;46.49
56052;BME280;41919;42.648;23.384;2023-05-19T06:10:54;94794.31;;;23.14;46.99
56052;BME280;41919;42.648;23.384;2023-05-19T06:13:19;94814.00;;;23.18;47.31
56052;BME280;41919;42.648;23.384;2023-05-19T06:15:48;94804.63;;;23.26;45.72
56052;BME280;41919;42.648;23.384;2023-05-19T06:18:13;94866.47;;;24.07;45.62
56052;BME280;41919;42.648;23.384;2023-05-19T06:20:39;94861.09;;;24.36;45.29
56052;BME280;41919;42.648;23.384;2023-05-19T06:23:04;94865.53;;;24.51;42.87
56052;BME280;41919;42.648;23.384;2023-05-19T06:25:30;94852.53;;;24.10;41.74
56052;BME280;41919;42.648;23.384;2023-05-19T06:27:56;94855.19;;;23.86;42.36
56052;BME280;41919;42.648;23.384;2023-05-19T06:30:21;94825.75;;;23.57;42.54
56052;BME280;41919;42.648;23.384;2023-05-19T06:32:46;94805.44;;;23.26;42.93
56052;BME280;41919;42.648;23.384;2023-05-19T06:35:12;94862.69;;;23.74;43.46
56052;BME280;41919;42.648;23.384;2023-05-19T06:37:37;94856.19;;;23.51;42.77
56052;BME280;41919;42.648;23.384;2023-05-19T06:40:03;94842.38;;;24.12;41.93
56052;BME280;41919;42.648;23.384;2023-05-19T06:42:29;94850.50;;;24.79;39.62
56052;BME280;41919;42.648;23.384;2023-05-19T06:44:55;94865.69;;;25.27;39.75
56052;BME280;41919;42.648;23.384;2023-05-19T06:47:20;94858.06;;;25.91;36.50
56052;BME280;41919;42.648;23.384;2023-05-19T06:49:46;94851.50;;;26.44;35.26
56052;BME280;41919;42.648;23.384;2023-05-19T06:52:15;94851.06;;;26.70;34.60
56052;BME280;41919;42.648;23.384;2023-05-19T06:54:40;94852.69;;;27.07;33.86
56052;BME280;41919;42.648;23.384;2023-05-19T06:57:05;94850.53;;;26.95;33.73
56052;BME280;41919;42.648;23.384;2023-05-19T06:59:31;94818.44;;;26.90;33.97
56052;BME280;41919;42.648;23.384;2023-05-19T07:01:56;94855.41;;;26.05;34.82
56052;BME280;41919;42.648;23.384;2023-05-19T07:04:22;94861.91;;;25.66;36.39
56052;BME280;41919;42.648;23.384;2023-05-19T07:06:47;94858.03;;;26.10;35.74
56052;BME280;41919;42.648;23.384;2023-05-19T07:09:14;94860.88;;;26.74;34.25
56052;BME280;41919;42.648;23.384;2023-05-19T07:11:40;94863.88;;;26.87;34.69
56052;BME280;41919;42.648;23.384;2023-05-19T07:14:05;94858.38;;;27.56;33.05
56052;BME280;41919;42.648;23.384;2023-05-19T07:16:31;94864.97;;;27.72;33.17
56052;BME280;41919;42.648;23.384;2023-05-19T07:18:56;94865.41;;;27.02;33.27
56052;BME280;41919;42.648;23.384;2023-05-19T07:21:22;94876.44;;;27.14;33.68
56052;BME280;41919;42.648;23.384;2023-05-19T07:23:47;94867.41;;;27.83;32.59
56052;BME280;41919;42.648;23.384;2023-05-19T07:26:12;94869.72;;;27.53;33.22
56052;BME280;41919;42.648;23.384;2023-05-19T07:28:38;94880.94;;;27.55;32.83
56052;BME280;41919;42.648;23.384;2023-05-19T07:31:03;94842.06;;;27.16;32.61
56052;BME280;41919;42.648;23.384;2023-05-19T07:33:29;94869.75;;;26.42;33.96
56052;BME280;41919;42.648;23.384;2023-05-19T07:35:54;94861.06;;;25.85;35.18
56052;BME280;41919;42.648;23.384;2023-05-19T07:38:20;94863.00;;;25.27;35.58
56052;BME280;41919;42.648;23.384;2023-05-19T07:40:46;94886.75;;;25.53;35.33
56052;BME280;41919;42.648;23.384;2023-05-19T07:43:11;94834.13;;;25.05;36.44
56052;BME280;41919;42.648;23.384;2023-05-19T07:45:37;94818.53;;;25.12;36.38
56052;BME280;41919;42.648;23.384;2023-05-19T07:48:03;94877.38;;;25.12;36.31
56052;BME280;41919;42.648;23.384;2023-05-19T07:50:28;94883.78;;;25.54;36.64
56052;BME280;41919;42.648;23.384;2023-05-19T07:52:54;94875.94;;;25.58;36.56
56052;BME280;41919;42.648;23.384;2023-05-19T07:55:20;94875.88;;;26.15;35.03
56052;BME280;41919;42.648;23.384;2023-05-19T07:57:48;94862.25;;;25.21;36.32
56052;BME280;41919;42.648;23.384;2023-05-19T08:00:14;94858.19;;;24.62;38.26
56052;BME280;41919;42.648;23.384;2023-05-19T08:02:40;94877.25;;;25.41;37.19
56052;BME280;41919;42.648;23.384;2023-05-19T08:05:06;94865.84;;;25.88;35.33
56052;BME280;41919;42.648;23.384;2023-05-19T08:07:33;94856.91;;;25.78;36.30
56052;BME280;41919;42.648;23.384;2023-05-19T08:09:58;94810.00;;;25.81;35.26
56052;BME280;41919;42.648;23.384;2023-05-19T08:12:24;94866.09;;;26.38;34.45
56052;BME280;41919;42.648;23.384;2023-05-19T08:14:49;94860.44;;;26.26;33.87
56052;BME280;41919;42.648;23.384;2023-05-19T08:17:15;94821.28;;;25.97;34.74
56052;BME280;41919;42.648;23.384;2023-05-19T08:19:40;94871.94;;;26.54;34.63
56052;BME280;41919;42.648;23.384;2023-05-19T08:22:06;94818.47;;;26.35;33.62
56052;BME280;41919;42.648;23.384;2023-05-19T08:24:31;94880.50;;;26.56;34.33
56052;BME280;41919;42.648;23.384;2023-05-19T08:26:58;94881.72;;;25.84;34.75
56052;BME280;41919;42.648;23.384;2023-05-19T08:29:23;94815.09;;;24.69;36.51
56052;BME280;41919;42.648;23.384;2023-05-19T08:31:52;94876.16;;;23.98;39.41
56052;BME280;41919;42.648;23.384;2023-05-19T08:34:20;94870.28;;;24.54;38.69
56052;BME280;41919;42.648;23.384;2023-05-19T08:36:46;94861.44;;;25.02;37.26
56052;BME280;41919;42.648;23.384;2023-05-19T08:39:12;94867.06;;;25.43;37.40
56052;BME280;41919;42.648;23.384;2023-05-19T08:41:38;94856.00;;;25.31;37.89
56052;BME280;41919;42.648;23.384;2023-05-19T08:44:04;94836.41;;;24.93;37.24
56052;BME280;41919;42.648;23.384;2023-05-19T08:46:29;94860.13;;;25.42;35.98
56052;BME280;41919;42.648;23.384;2023-05-19T08:49:10;94855.41;;;25.53;36.99
56052;BME280;41919;42.648;23.384;2023-05-19T08:54:24;94874.59;;;25.41;36.32
56052;BME280;41919;42.648;23.384;2023-05-19T08:56:54;94867.22;;;24.66;37.67
56052;BME280;41919;42.648;23.384;2023-05-19T08:59:21;94857.84;;;24.15;38.96
56052;BME280;41919;42.648;23.384;2023-05-19T09:01:47;94816.56;;;24.02;38.88
56052;BME280;41919;42.648;23.384;2023-05-19T09:04:14;94862.06;;;24.21;38.57
56052;BME280;41919;42.648;23.384;2023-05-19T09:06:41;94797.75;;;23.88;39.26
56052;BME280;41919;42.648;23.384;2023-05-19T09:09:08;94851.84;;;24.29;39.51
56052;BME280;41919;42.648;23.384;2023-05-19T09:11:34;94854.13;;;24.40;39.18
56052;BME280;41919;42.648;23.384;2023-05-19T09:14:05;94852.91;;;24.27;40.28
56052;BME280;41919;42.648;23.384;2023-05-19T09:16:31;94810.19;;;24.27;39.84
56052;BME280;41919;42.648;23.384;2023-05-19T09:18:58;94857.63;;;24.89;39.09
56052;BME280;41919;42.648;23.384;2023-05-19T09:21:31;94853.50;;;24.97;37.48
56052;BME280;41919;42.648;23.384;2023-05-19T09:24:02;94848.69;;;24.75;37.73
56052;BME280;41919;42.648;23.384;2023-05-19T09:26:38;94835.63;;;24.92;38.03
56052;BME280;41919;42.648;23.384;2023-05-19T09:29:17;94847.63;;;24.76;38.21
56052;BME280;41919;42.648;23.384;2023-05-19T09:31:50;94826.56;;;23.57;41.57
56052;BME280;41919;42.648;23.384;2023-05-19T09:34:16;94844.25;;;23.82;42.45
56052;BME280;41919;42.648;23.384;2023-05-19T09:36:41;94795.56;;;23.61;41.01
56052;BME280;41919;42.648;23.384;2023-05-19T09:39:14;94831.81;;;23.67;43.99
56052;BME280;41919;42.648;23.384;2023-05-19T09:41:41;94830.91;;;24.12;42.16
56052;BME280;41919;42.648;23.384;2023-05-19T09:44:06;94840.34;;;24.57;39.37
56052;BME280;41919;42.648;23.384;2023-05-19T09:46:32;94840.94;;;24.73;39.17
56052;BME280;41919;42.648;23.384;2023-05-19T09:49:07;94787.44;;;23.47;41.28
56052;BME280;41919;42.648;23.384;2023-05-19T09:51:35;94843.19;;;22.99;42.98
56052;BME280;41919;42.648;23.384;2023-05-19T09:54:02;94837.44;;;22.66;43.22
56052;BME280;41919;42.648;23.384;2023-05-19T09:56:33;94824.81;;;22.93;41.97
56052;BME280;41919;42.648;23.384;2023-05-19T09:58:58;94780.50;;;22.57;43.21
56052;BME280;41919;42.648;23.384;2023-05-19T10:01:24;94829.03;;;22.44;43.56
56052;BME280;41919;42.648;23.384;2023-05-19T10:03:51;94834.44;;;21.82;45.10
56052;BME280;41919;42.648;23.384;2023-05-19T10:06:18;94831.78;;;21.57;46.85
56052;BME280;41919;42.648;23.384;2023-05-19T10:08:44;94763.38;;;20.90;46.67
56052;BME280;41919;42.648;23.384;2023-05-19T10:11:12;94777.00;;;21.50;46.40
56052;BME280;41919;42.648;23.384;2023-05-19T10:13:38;94781.22;;;21.72;46.86
56052;BME280;41919;42.648;23.384;2023-05-19T10:16:05;94773.50;;;21.86;46.10
56052;BME280;41919;42.648;23.384;2023-05-19T10:18:32;94814.88;;;22.48;44.03
56052;BME280;41919;42.648;23.384;2023-05-19T10:20:57;94810.91;;;22.41;43.89
56052;BME280;41919;42.648;23.384;2023-05-19T10:23:25;94811.97;;;22.40;44.63
56052;BME280;41919;42.648;23.384;2023-05-19T10:25:53;94814.41;;;22.10;44.68
56052;BME280;41919;42.648;23.384;2023-05-19T10:28:21;94802.19;;;21.99;44.75
56052;BME280;41919;42.648;23.384;2023-05-19T10:30:54;94805.69;;;21.84;45.81
56052;BME280;41919;42.648;23.384;2023-05-19T10:34:21;94814.72;;;21.99;47.91
56052;BME280;41919;42.648;23.384;2023-05-19T10:36:43;94803.84;;;21.90;46.66
56052;BME280;41919;42.648;23.384;2023-05-19T10:39:16;94760.22;;;21.55;44.76
56052;BME280;41919;42.648;23.384;2023-05-19T10:42:02;94803.84;;;21.85;43.76
56052;BME280;41919;42.648;23.384;2023-05-19T10:47:10;94739.47;;;21.83;43.70
56052;BME280;41919;42.648;23.384;2023-05-19T10:49:36;94796.31;;;22.28;43.51
56052;BME280;41919;42.648;23.384;2023-05-19T10:52:18;94807.22;;;22.21;44.21
56052;BME280;41919;42.648;23.384;2023-05-19T10:54:45;94795.00;;;22.15;43.54
56052;BME280;41919;42.648;23.384;2023-05-19T10:57:17;94795.00;;;22.25;42.36
56052;BME280;41919;42.648;23.384;2023-05-19T10:59:44;94796.09;;;21.99;45.21
56052;BME280;41919;42.648;23.384;2023-05-19T11:02:10;94782.03;;;21.83;44.61
56052;BME280;41919;42.648;23.384;2023-05-19T11:05:06;94792.38;;;22.00;44.16
56052;BME280;41919;42.648;23.384;2023-05-19T11:07:33;94782.78;;;21.93;42.68
56052;BME280;41919;42.648;23.384;2023-05-19T11:10:04;94729.13;;;21.45;42.46
56052;BME280;41919;42.648;23.384;2023-05-19T11:12:39;94786.00;;;21.80;42.38
56052;BME280;41919;42.648;23.384;2023-05-19T11:15:07;94788.66;;;21.85;43.04
56052;BME280;41919;42.648;23.384;2023-05-19T11:17:34;94790.53;;;21.90;43.39
56052;BME280;41919;42.648;23.384;2023-05-19T11:19:59;94776.94;;;21.97;42.29
56052;BME280;41919;42.648;23.384;2023-05-19T11:22:26;94765.72;;;22.10;42.77
56052;BME280;41919;42.648;23.384;2023-05-19T11:24:55;94774.66;;;22.50;42.15
56052;BME280;41919;42.648;23.384;2023-05-19T11:27:31;94763.44;;;22.53;40.56
56052;BME280;41919;42.648;23.384;2023-05-19T11:30:03;94781.41;;;22.17;42.75
56052;BME280;41919;42.648;23.384;2023-05-19T11:32:39;94673.31;;;21.20;43.41
56052;BME280;41919;42.648;23.384;2023-05-19T11:35:07;94788.66;;;21.90;43.53
56052;BME280;41919;42.648;23.384;2023-05-19T11:37:34;94747.47;;;21.47;42.95
56052;BME280;41919;42.648;23.384;2023-05-19T11:40:05;94822.41;;;21.33;49.39
56052;BME280;41919;42.648;23.384;2023-05-19T11:42:34;94836.06;;;20.69;55.20
56052;BME280;41919;42.648;23.384;2023-05-19T11:45:01;94848.84;;;19.82;54.57
56052;BME280;41919;42.648;23.384;2023-05-19T11:47:27;94753.94;;;18.87;57.69
56052;BME280;41919;42.648;23.384;2023-05-19T11:49:54;94765.81;;;18.57;60.17
56052;BME280;41919;42.648;23.384;2023-05-19T11:52:24;94795.16;;;18.11;62.59
56052;BME280;41919;42.648;23.384;2023-05-19T11:54:50;94818.34;;;17.87;70.23
56052;BME280;41919;42.648;23.384;2023-05-19T11:57:16;94831.50;;;17.48;84.02
56052;BME280;41919;42.648;23.384;2023-05-19T11:59:41;94871.06;;;17.14;88.25
56052;BME280;41919;42.648;23.384;2023-05-19T12:02:15;94878.41;;;16.72;78.74
56052;BME280;41919;42.648;23.384;2023-05-19T12:04:41;94889.97;;;16.06;80.66
56052;BME280;41919;42.648;23.384;2023-05-19T12:07:07;94891.69;;;15.47;86.14
56052;BME280;41919;42.648;23.384;2023-05-19T12:09:33;94850.84;;;14.35;86.00
56052;BME280;41919;42.648;23.384;2023-05-19T12:11:59;94892.28;;;14.58;89.02
56052;BME280;41919;42.648;23.384;2023-05-19T12:14:25;94879.09;;;14.40;92.08
56052;BME280;41919;42.648;23.384;2023-05-19T12:16:51;94808.19;;;13.96;94.71
56052;BME280;41919;42.648;23.384;2023-05-19T12:19:16;94830.09;;;14.08;98.40
56052;BME280;41919;42.648;23.384;2023-05-19T12:21:42;94874.66;;;14.59;98.52
56052;BME280;41919;42.648;23.384;2023-05-19T12:24:08;94879.13;;;14.77;91.74
56052;BME280;41919;42.648;23.384;2023-05-19T12:26:34;94866.13;;;14.94;91.42
56052;BME280;41919;42.648;23.384;2023-05-19T12:29:00;94805.66;;;14.75;93.98
56052;BME280;41919;42.648;23.384;2023-05-19T12:31:25;94820.00;;;14.91;88.61
56052;BME280;41919;42.648;23.384;2023-05-19T12:33:51;94854.53;;;15.13;87.46
56052;BME280;41919;42.648;23.384;2023-05-19T12:36:22;94803.41;;;14.79;90.31
56052;BME280;41919;42.648;23.384;2023-05-19T12:38:52;94861.81;;;15.41;92.05
56052;BME280;41919;42.648;23.384;2023-05-19T12:41:18;94809.09;;;15.18;88.37
56052;BME280;41919;42.648;23.384;2023-05-19T12:43:43;94826.63;;;15.36;89.82
56052;BME280;41919;42.648;23.384;2023-05-19T12:46:12;94846.63;;;15.55;85.90
56052;BME280;41919;42.648;23.384;2023-05-19T12:48:44;94795.75;;;15.55;88.19
56052;BME280;41919;42.648;23.384;2023-05-19T12:51:15;94764.72;;;15.57;84.40
56052;BME280;41919;42.648;23.384;2023-05-19T12:53:40;94828.97;;;16.26;83.86
56052;BME280;41919;42.648;23.384;2023-05-19T12:56:15;94775.03;;;16.05;78.26
56052;BME280;41919;42.648;23.384;2023-05-19T12:58:41;94769.69;;;16.29;69.02
56052;BME280;41919;42.648;23.384;2023-05-19T13:01:15;94769.38;;;16.54;70.26
56052;BME280;41919;42.648;23.384;2023-05-19T13:03:41;94809.84;;;17.17;68.42